Time;durP1;ratioP1;P1;durP2;ratioP2;P2;SDS_P1;SDS_P2;PMS_P1;PMS_P2;Temp;Humidity;BMP_temperature;BMP_pressure;BME280_temperature;BME280_humidity;BME280_pressure;Samples;Min_cycle;Max_cycle;Signal;HPM_P1;HPM_P2
2021/12/01 00:00:46;;;;;;;10.18;9.98;;;4.00;99.90;;;;;;4192878;28;20829;-52
2021/12/01 00:02:53;;;;;;;7.35;7.25;;;4.00;99.90;;;;;;4193568;28;20043;-53
2021/12/01 00:04:55;;;;;;;6.88;6.72;;;4.10;99.90;;;;;;4194111;28;20119;-52
2021/12/01 00:06:57;;;;;;;7.75;7.45;;;4.10;99.90;;;;;;4193062;28;20466;-51
2021/12/01 00:08:59;;;;;;;9.35;9.20;;;4.10;99.90;;;;;;4189296;28;20036;-53
2021/12/01 00:11:02;;;;;;;11.45;11.20;;;4.00;99.90;;;;;;4191800;28;20036;-51
2021/12/01 00:13:07;;;;;;;9.30;9.02;;;4.00;99.90;;;;;;4185818;28;20062;-53
2021/12/01 00:15:10;;;;;;;8.48;8.15;;;4.00;99.90;;;;;;4191293;28;20033;-51
2021/12/01 00:17:12;;;;;;;6.50;6.28;;;3.90;99.90;;;;;;4190678;28;20037;-51
2021/12/01 00:19:15;;;;;;;5.55;5.30;;;3.80;99.90;;;;;;4194257;28;20040;-53
2021/12/01 00:21:17;;;;;;;5.70;5.60;;;3.80;99.90;;;;;;4193370;28;20495;-53
2021/12/01 00:23:19;;;;;;;5.88;5.78;;;3.70;99.90;;;;;;4194329;28;20098;-52
2021/12/01 00:25:23;;;;;;;5.82;5.57;;;3.70;99.90;;;;;;4188402;28;20044;-52
2021/12/01 00:27:25;;;;;;;6.88;6.60;;;3.70;99.90;;;;;;4167979;28;20088;-52
2021/12/01 00:29:27;;;;;;;8.95;8.85;;;3.80;99.90;;;;;;4186255;28;20493;-52
2021/12/01 00:31:29;;;;;;;9.25;9.15;;;3.80;99.90;;;;;;4193033;28;20055;-52
2021/12/01 00:33:33;;;;;;;9.43;9.32;;;3.80;99.90;;;;;;4193639;28;20043;-52
2021/12/01 00:35:35;;;;;;;11.80;11.43;;;3.80;99.90;;;;;;4195151;28;20048;-52
2021/12/01 00:37:42;;;;;;;11.13;10.85;;;3.70;99.90;;;;;;4193399;28;20119;-53
2021/12/01 00:39:44;;;;;;;10.05;9.60;;;3.70;99.90;;;;;;4194255;28;20044;-52
2021/12/01 00:41:48;;;;;;;11.38;11.02;;;3.70;99.90;;;;;;4191727;28;20047;-53
2021/12/01 00:43:50;;;;;;;10.55;10.30;;;3.70;99.90;;;;;;4194279;28;20052;-52
2021/12/01 00:45:57;;;;;;;11.68;11.10;;;3.60;99.90;;;;;;4194208;28;20052;-53
2021/12/01 00:47:59;;;;;;;13.32;13.02;;;3.60;99.90;;;;;;4169583;28;20045;-53
2021/12/01 00:50:01;;;;;;;17.98;17.08;;;3.60;99.90;;;;;;4170988;28;20057;-52
2021/12/01 00:52:03;;;;;;;15.18;14.77;;;3.40;99.90;;;;;;4194008;28;20067;-52
2021/12/01 00:54:05;;;;;;;15.18;14.98;;;3.50;99.90;;;;;;4191198;28;20037;-52
2021/12/01 00:56:08;;;;;;;15.55;15.32;;;3.70;99.90;;;;;;4194208;28;20032;-54
2021/12/01 00:58:12;;;;;;;;;;;3.80;99.90;;;;;;4193712;28;20040;-54
2021/12/01 01:00:14;;;;;;;13.32;13.02;;;3.80;99.90;;;;;;4190709;28;19920;-53
2021/12/01 01:02:16;;;;;;;13.88;13.40;;;3.80;99.90;;;;;;4192709;28;20048;-53
2021/12/01 01:04:19;;;;;;;15.93;15.63;;;3.70;99.90;;;;;;4188063;28;20032;-52
2021/12/01 01:06:21;;;;;;;14.40;13.77;;;3.70;99.90;;;;;;4192763;28;20787;-53
2021/12/01 01:08:23;;;;;;;11.57;11.38;;;3.80;99.90;;;;;;4192252;28;20033;-53
2021/12/01 01:10:45;;;;;;;11.82;11.65;;;3.70;99.90;;;;;;4191759;28;20060;-52
2021/12/01 01:17:38;;;;;;;10.23;10.00;;;3.60;99.90;;;;;;4192018;28;20456;-52
2021/12/01 01:19:40;;;;;;;12.57;12.38;;;3.60;99.90;;;;;;4191566;28;20653;-52
2021/12/01 01:21:47;;;;;;;14.10;13.80;;;3.60;99.90;;;;;;4166870;28;20689;-52
2021/12/01 01:23:50;;;;;;;16.23;15.88;;;3.60;99.90;;;;;;4174917;28;20032;-53
2021/12/01 01:25:52;;;;;;;15.32;15.10;;;3.60;99.90;;;;;;4192735;28;20044;-53
2021/12/01 01:27:54;;;;;;;14.45;14.25;;;3.60;99.90;;;;;;4193229;28;20090;-53
2021/12/01 01:29:56;;;;;;;13.80;13.60;;;3.60;99.90;;;;;;4190281;28;20090;-52
2021/12/01 01:31:59;;;;;;;12.88;12.57;;;3.70;99.90;;;;;;4191910;28;20507;-51
2021/12/01 01:34:02;;;;;;;10.48;10.38;;;3.70;99.90;;;;;;4192715;28;20037;-52
2021/12/01 01:36:04;;;;;;;8.57;8.48;;;3.70;99.90;;;;;;4193372;28;20040;-52
2021/12/01 01:38:06;;;;;;;11.38;11.07;;;3.70;99.90;;;;;;4190795;28;20060;-52
2021/12/01 01:40:09;;;;;;;9.63;9.43;;;3.70;99.90;;;;;;4192078;28;20036;-52
2021/12/01 01:42:11;;;;;;;6.72;6.35;;;3.60;99.90;;;;;;4190273;28;20040;-53
2021/12/01 01:44:14;;;;;;;6.93;6.40;;;3.60;99.90;;;;;;4188120;28;20044;-51
2021/12/01 01:46:16;;;;;;;7.30;7.20;;;3.60;99.90;;;;;;4190228;28;20032;-53
2021/12/01 01:48:22;;;;;;;;;;;3.60;99.90;;;;;;4191575;28;20665;-53
2021/12/01 01:50:47;;;;;;;7.38;7.28;;;3.60;99.90;;;;;;4193458;28;19928;-52
2021/12/01 01:52:48;;;;;;;7.28;7.18;;;3.60;99.90;;;;;;4193092;28;20036;-53
2021/12/01 01:54:50;;;;;;;6.70;6.60;;;3.60;99.90;;;;;;4190685;28;20036;-53
2021/12/01 01:56:52;;;;;;;5.70;5.60;;;3.50;99.90;;;;;;4177287;28;20041;-52
2021/12/01 01:58:56;;;;;;;6.72;6.40;;;3.50;99.90;;;;;;4189020;28;20036;-53
2021/12/01 02:01:08;;;;;;;5.95;5.45;;;3.40;99.90;;;;;;4183555;28;20470;-50
2021/12/01 02:03:13;;;;;;;4.88;4.70;;;3.40;99.90;;;;;;4189674;28;20048;-50
2021/12/01 02:05:16;;;;;;;6.82;5.07;;;3.40;99.90;;;;;;4192793;28;20051;-51
2021/12/01 02:07:18;;;;;;;5.70;5.60;;;3.40;99.90;;;;;;4191522;28;20032;-48
2021/12/01 02:09:22;;;;;;;5.50;5.30;;;3.30;99.90;;;;;;4190254;28;20512;-48
2021/12/01 02:11:27;;;;;;;5.28;5.03;;;3.30;99.90;;;;;;4193339;28;20154;-48
2021/12/01 02:13:29;;;;;;;7.07;6.65;;;3.30;99.90;;;;;;4181926;28;20504;-47
2021/12/01 02:15:31;;;;;;;7.10;6.82;;;3.20;99.90;;;;;;4191766;28;20037;-49
2021/12/01 02:17:34;;;;;;;8.40;8.07;;;3.20;99.90;;;;;;4190421;28;20033;-49
2021/12/01 02:19:39;;;;;;;9.10;9.00;;;3.20;99.90;;;;;;4189095;28;20495;-48
2021/12/01 02:21:41;;;;;;;9.35;9.18;;;3.20;99.90;;;;;;4192474;28;20093;-47
2021/12/01 02:23:49;;;;;;;7.25;7.15;;;3.20;99.90;;;;;;4193323;28;20040;-50
2021/12/01 02:25:58;;;;;;;7.93;7.82;;;3.20;99.90;;;;;;4192271;28;20048;-49
2021/12/01 02:28:08;;;;;;;7.35;7.15;;;3.20;99.90;;;;;;4113027;28;20200;-49
2021/12/01 02:30:11;;;;;;;6.57;6.38;;;3.20;99.90;;;;;;4190570;28;20522;-47
2021/12/01 02:32:14;;;;;;;6.20;6.00;;;3.20;99.90;;;;;;4191469;28;20415;-50
2021/12/01 02:34:19;;;;;;;4.60;4.40;;;3.20;99.90;;;;;;4191626;28;20048;-49
2021/12/01 02:36:21;;;;;;;5.10;4.43;;;3.20;99.90;;;;;;4191403;28;20041;-49
2021/12/01 02:38:24;;;;;;;;;;;3.20;99.90;;;;;;4190429;28;20041;-48
2021/12/01 02:40:26;;;;;;;4.43;4.32;;;3.10;99.90;;;;;;4191622;28;19931;-49
2021/12/01 02:42:28;;;;;;;5.30;5.20;;;3.10;99.90;;;;;;4193649;28;20500;-49
2021/12/01 02:44:31;;;;;;;3.95;3.70;;;3.20;99.90;;;;;;4193636;28;20048;-50
2021/12/01 02:46:34;;;;;;;5.35;5.25;;;3.30;99.90;;;;;;4194874;28;20041;-47
2021/12/01 02:48:41;;;;;;;6.55;6.10;;;3.20;99.90;;;;;;4185739;28;20056;-49
2021/12/01 02:50:44;;;;;;;5.70;5.60;;;3.30;99.90;;;;;;4195156;28;20047;-49
2021/12/01 02:52:46;;;;;;;6.30;6.20;;;3.20;99.90;;;;;;4194394;28;20032;-49
2021/12/01 02:54:49;;;;;;;5.25;4.90;;;3.30;99.90;;;;;;4193146;28;20544;-47
2021/12/01 02:56:53;;;;;;;5.72;5.57;;;3.30;99.90;;;;;;4196156;28;20048;-48
2021/12/01 02:58:58;;;;;;;6.45;5.90;;;3.30;99.90;;;;;;4193878;28;20496;-50
2021/12/01 03:01:05;;;;;;;5.97;5.60;;;3.20;99.90;;;;;;4196913;28;20400;-51
2021/12/01 03:03:07;;;;;;;6.18;6.07;;;3.10;99.90;;;;;;4194990;28;20078;-52
2021/12/01 03:05:09;;;;;;;7.13;6.57;;;3.20;99.90;;;;;;4196825;28;20037;-48
2021/12/01 03:07:12;;;;;;;4.63;4.53;;;3.20;99.90;;;;;;4192167;28;20500;-48
2021/12/01 03:09:15;;;;;;;5.03;4.93;;;3.20;99.90;;;;;;4174367;28;20620;-48
2021/12/01 03:11:17;;;;;;;6.35;5.82;;;3.10;99.90;;;;;;4191597;28;20032;-47
2021/12/01 03:13:21;;;;;;;7.15;7.05;;;3.10;99.90;;;;;;4195685;28;20037;-48
2021/12/01 03:15:24;;;;;;;6.50;6.40;;;3.10;99.90;;;;;;4195736;28;20040;-49
2021/12/01 03:17:30;;;;;;;5.63;5.55;;;3.00;99.90;;;;;;4174731;28;20456;-49
2021/12/01 03:19:32;;;;;;;5.68;5.57;;;3.00;99.90;;;;;;4192627;28;20051;-48
2021/12/01 03:21:36;;;;;;;6.20;5.97;;;3.10;99.90;;;;;;4195929;28;20106;-49
2021/12/01 03:23:39;;;;;;;5.85;5.65;;;3.00;99.90;;;;;;4193970;28;20617;-49
2021/12/01 03:25:43;;;;;;;5.50;5.40;;;3.00;99.90;;;;;;4195836;28;20482;-47
2021/12/01 03:27:45;;;;;;;5.18;5.07;;;3.00;99.90;;;;;;4173476;28;20088;-51
2021/12/01 03:29:49;;;;;;;3.97;3.88;;;3.00;99.90;;;;;;4195880;28;20041;-48
2021/12/01 03:31:51;;;;;;;3.65;3.65;;;3.20;99.90;;;;;;4192841;28;20051;-51
2021/12/01 03:33:53;;;;;;;4.85;4.60;;;3.40;99.90;;;;;;4194913;28;20127;-47
2021/12/01 03:35:55;;;;;;;4.45;4.35;;;3.60;99.90;;;;;;4194427;28;20049;-50
2021/12/01 03:37:58;;;;;;;4.43;4.32;;;3.70;99.90;;;;;;4164624;28;20453;-50
2021/12/01 03:40:00;;;;;;;4.78;4.47;;;3.60;99.90;;;;;;4193359;28;20094;-49
2021/12/01 03:42:04;;;;;;;4.38;4.25;;;3.70;99.90;;;;;;4190847;28;20049;-50
2021/12/01 03:44:06;;;;;;;3.30;3.30;;;3.60;99.90;;;;;;4191981;28;20040;-50
2021/12/01 03:46:09;;;;;;;4.72;4.63;;;3.50;99.90;;;;;;4194024;28;20036;-49
2021/12/01 03:48:11;;;;;;;4.72;4.53;;;3.40;99.90;;;;;;4192025;28;20044;-49
2021/12/01 03:50:14;;;;;;;5.72;5.32;;;3.30;99.90;;;;;;4194386;28;20049;-50
2021/12/01 03:52:17;;;;;;;4.45;4.15;;;3.30;99.90;;;;;;4191585;28;20070;-51
2021/12/01 03:54:19;;;;;;;4.18;4.13;;;3.30;99.90;;;;;;4186292;28;20040;-51
2021/12/01 03:56:21;;;;;;;4.35;4.25;;;3.30;99.90;;;;;;4194137;28;20078;-49
2021/12/01 03:58:23;;;;;;;5.50;5.38;;;3.20;99.90;;;;;;4193205;28;20823;-47
2021/12/01 04:00:25;;;;;;;5.82;5.63;;;3.10;99.90;;;;;;4191491;28;20099;-50
2021/12/01 04:02:27;;;;;;;5.57;5.18;;;3.10;99.90;;;;;;4183573;28;20047;-49
2021/12/01 04:04:30;;;;;;;5.20;5.10;;;3.10;99.90;;;;;;4195158;28;20071;-52
2021/12/01 04:06:33;;;;;;;5.05;4.95;;;3.10;99.90;;;;;;4194688;28;20044;-49
2021/12/01 04:08:35;;;;;;;5.65;5.55;;;3.10;99.90;;;;;;4193211;28;20052;-48
2021/12/01 04:10:37;;;;;;;4.75;4.65;;;3.10;99.90;;;;;;4194492;28;20037;-49
2021/12/01 04:12:42;;;;;;;6.15;5.95;;;3.20;99.90;;;;;;4189727;28;20033;-50
2021/12/01 04:14:45;;;;;;;5.15;5.05;;;3.20;99.90;;;;;;4182287;28;20626;-49
2021/12/01 04:16:47;;;;;;;5.50;5.25;;;3.10;99.90;;;;;;4192600;28;20028;-51
2021/12/01 04:18:49;;;;;;;5.43;5.32;;;3.10;99.90;;;;;;4186299;28;20680;-48
2021/12/01 04:20:53;;;;;;;5.45;5.25;;;3.10;99.90;;;;;;4194267;28;20086;-50
2021/12/01 04:22:56;;;;;;;5.40;5.20;;;3.10;99.90;;;;;;4182888;28;20036;-50
2021/12/01 04:24:58;;;;;;;;;;;3.10;99.90;;;;;;4193673;28;20050;-49
2021/12/01 04:27:00;;;;;;;5.38;5.28;;;3.20;99.90;;;;;;4193525;28;19925;-51
2021/12/01 04:29:04;;;;;;;5.57;5.43;;;3.20;99.90;;;;;;4194979;28;20044;-50
2021/12/01 04:31:06;;;;;;;6.72;6.53;;;3.10;99.90;;;;;;4176014;28;20041;-48
2021/12/01 04:33:09;;;;;;;6.20;6.10;;;3.00;99.90;;;;;;4194051;28;20029;-49
2021/12/01 04:35:13;;;;;;;5.88;5.55;;;3.00;99.90;;;;;;4193918;28;20033;-50
2021/12/01 04:37:16;;;;;;;7.00;6.60;;;3.00;99.90;;;;;;4194344;28;20037;-51
2021/12/01 04:39:19;;;;;;;7.13;7.03;;;3.00;99.90;;;;;;4191678;28;20041;-49
2021/12/01 04:41:22;;;;;;;6.47;6.22;;;3.00;99.90;;;;;;4192724;28;20032;-50
2021/12/01 04:43:25;;;;;;;5.18;4.97;;;3.00;99.90;;;;;;4190352;28;20064;-50
2021/12/01 04:45:31;;;;;;;6.63;6.43;;;3.00;99.90;;;;;;4194362;28;20901;-48
2021/12/01 04:47:37;;;;;;;6.97;6.72;;;2.90;99.90;;;;;;4191552;28;20044;-51
2021/12/01 04:49:40;;;;;;;6.93;6.63;;;2.80;99.90;;;;;;4182264;28;20045;-50
2021/12/01 04:51:46;;;;;;;5.85;5.65;;;2.80;99.90;;;;;;4194732;28;20451;-50
2021/12/01 04:53:48;;;;;;;6.60;5.90;;;2.80;99.90;;;;;;4183803;28;20569;-49
2021/12/01 04:55:50;;;;;;;6.28;6.07;;;2.80;99.90;;;;;;4189604;28;20067;-49
2021/12/01 04:57:52;;;;;;;6.20;5.97;;;2.80;99.90;;;;;;4193302;28;20079;-49
2021/12/01 04:59:55;;;;;;;6.40;6.20;;;2.90;99.90;;;;;;4192957;28;20048;-48
2021/12/01 05:01:57;;;;;;;5.43;5.32;;;2.90;99.90;;;;;;4188415;28;20120;-50
2021/12/01 05:03:59;;;;;;;5.95;5.80;;;2.90;99.90;;;;;;4170610;28;20047;-51
2021/12/01 05:06:01;;;;;;;5.97;5.78;;;2.90;99.90;;;;;;4195154;28;20280;-49
2021/12/01 05:08:04;;;;;;;5.82;5.63;;;2.90;99.90;;;;;;4193547;28;20051;-51
2021/12/01 05:10:06;;;;;;;;;;;2.90;99.90;;;;;;4182727;28;20037;-47
2021/12/01 05:12:09;;;;;;;5.68;5.57;;;2.80;99.90;;;;;;4187837;28;19920;-50
2021/12/01 05:14:13;;;;;;;7.10;6.57;;;2.80;99.90;;;;;;4193224;28;20040;-52
2021/12/01 05:16:15;;;;;;;9.15;8.85;;;2.90;99.90;;;;;;4192347;28;20047;-51
2021/12/01 05:18:17;;;;;;;7.18;7.03;;;2.80;99.90;;;;;;4190294;28;20036;-48
2021/12/01 05:20:19;;;;;;;6.35;6.15;;;2.80;99.90;;;;;;4189815;28;20037;-50
2021/12/01 05:22:22;;;;;;;6.50;6.18;;;2.90;99.90;;;;;;4191250;28;20032;-52
2021/12/01 05:24:24;;;;;;;7.07;6.88;;;2.90;99.90;;;;;;4171749;28;20041;-49
2021/12/01 05:26:26;;;;;;;6.35;6.03;;;2.90;99.90;;;;;;4193803;28;20047;-51
2021/12/01 05:28:28;;;;;;;;;;;2.90;99.90;;;;;;4191521;28;20083;-50
2021/12/01 05:30:30;;;;;;;5.97;5.78;;;2.90;99.90;;;;;;4193874;28;20374;-47
2021/12/01 05:32:33;;;;;;;6.38;5.78;;;2.80;99.90;;;;;;4190034;28;20471;-50
2021/12/01 05:34:35;;;;;;;;;;;2.80;99.90;;;;;;4175306;28;20040;-50
2021/12/01 05:36:37;;;;;;;6.50;6.15;;;2.80;99.90;;;;;;4192093;28;19974;-49
2021/12/01 05:38:39;;;;;;;5.68;5.57;;;2.90;99.90;;;;;;4193561;28;20036;-49
2021/12/01 05:40:42;;;;;;;6.82;6.00;;;2.80;99.90;;;;;;4191114;28;20029;-47
2021/12/01 05:42:44;;;;;;;6.50;6.35;;;2.70;99.90;;;;;;4193432;28;20049;-49
2021/12/01 05:44:46;;;;;;;6.50;6.20;;;2.70;99.90;;;;;;4192167;28;20036;-50
2021/12/01 05:46:49;;;;;;;5.35;5.15;;;2.60;99.90;;;;;;4193823;28;20048;-48
2021/12/01 05:48:51;;;;;;;6.57;6.18;;;2.60;99.90;;;;;;4172172;28;20045;-50
2021/12/01 05:50:56;;;;;;;;;;;2.60;99.90;;;;;;4193198;28;20503;-50
2021/12/01 05:52:58;;;;;;;7.22;7.03;;;2.60;99.90;;;;;;4191836;28;19969;-50
2021/12/01 05:55:00;;;;;;;7.93;7.63;;;2.60;99.90;;;;;;4191773;28;20036;-51
2021/12/01 05:57:03;;;;;;;10.23;9.00;;;2.60;99.90;;;;;;4190040;28;20064;-51
2021/12/01 05:59:05;;;;;;;;;;;2.50;99.90;;;;;;4194117;28;20040;-50
2021/12/01 06:01:07;;;;;;;9.52;9.05;;;2.40;99.90;;;;;;4189792;28;19928;-49
2021/12/01 06:03:10;;;;;;;8.90;8.13;;;2.40;99.90;;;;;;4192492;28;20147;-50
2021/12/01 06:05:12;;;;;;;10.15;9.45;;;2.30;99.90;;;;;;4193143;28;20076;-50
2021/12/01 06:07:14;;;;;;;9.02;8.45;;;2.30;99.90;;;;;;4191885;28;20052;-50
2021/12/01 06:09:17;;;;;;;9.52;8.73;;;2.40;99.90;;;;;;4192125;28;20048;-51
2021/12/01 06:11:20;;;;;;;9.05;8.05;;;2.50;99.90;;;;;;4192680;28;20392;-50
2021/12/01 06:13:24;;;;;;;10.18;9.45;;;2.50;99.90;;;;;;4192073;28;20212;-52
2021/12/01 06:15:31;;;;;;;13.57;12.27;;;2.50;99.90;;;;;;4192244;28;20054;-49
2021/12/01 06:17:34;;;;;;;14.20;12.82;;;2.50;99.90;;;;;;4190330;28;20504;-53
2021/12/01 06:19:37;;;;;;;13.40;12.05;;;2.40;99.90;;;;;;4183457;28;20098;-51
2021/12/01 06:21:40;;;;;;;16.65;13.25;;;2.40;99.90;;;;;;4186999;28;20073;-49
2021/12/01 06:23:42;;;;;;;11.43;10.75;;;2.40;99.90;;;;;;4171650;28;20095;-48
2021/12/01 06:25:44;;;;;;;12.15;11.18;;;2.50;99.90;;;;;;4192673;28;20044;-51
2021/12/01 06:27:47;;;;;;;11.43;10.48;;;2.50;99.90;;;;;;4192514;28;20036;-49
2021/12/01 06:29:49;;;;;;;8.43;8.07;;;2.50;99.90;;;;;;4188295;28;20041;-50
2021/12/01 06:31:51;;;;;;;10.00;9.43;;;2.60;99.90;;;;;;4179034;28;20662;-51
2021/12/01 06:33:54;;;;;;;12.95;12.15;;;2.60;99.90;;;;;;4187069;28;20048;-49
2021/12/01 06:35:56;;;;;;;16.90;15.52;;;2.60;99.90;;;;;;4184562;28;20065;-49
2021/12/01 06:37:58;;;;;;;14.23;13.43;;;2.60;99.90;;;;;;4175549;28;20045;-51
2021/12/01 06:40:01;;;;;;;11.20;10.60;;;2.50;99.90;;;;;;4192672;28;20039;-50
2021/12/01 06:42:04;;;;;;;13.15;12.45;;;2.40;99.90;;;;;;4193152;28;20051;-49
2021/12/01 06:44:06;;;;;;;14.05;13.18;;;2.40;99.90;;;;;;4192635;28;20040;-49
2021/12/01 06:46:08;;;;;;;16.25;15.65;;;2.40;99.90;;;;;;4191249;28;20115;-49
2021/12/01 06:48:10;;;;;;;13.65;13.40;;;2.30;99.90;;;;;;4192291;28;20047;-50
2021/12/01 06:50:14;;;;;;;15.98;15.43;;;2.40;99.90;;;;;;4193493;28;20550;-49
2021/12/01 06:52:16;;;;;;;16.98;15.60;;;2.40;99.90;;;;;;4191817;28;20086;-51
2021/12/01 06:54:18;;;;;;;17.35;15.88;;;2.50;99.90;;;;;;4190654;28;20040;-50
2021/12/01 06:56:21;;;;;;;;;;;2.50;99.90;;;;;;4189848;28;20071;-49
2021/12/01 06:58:23;;;;;;;19.58;18.45;;;2.50;99.90;;;;;;4189989;28;19970;-49
2021/12/01 07:00:25;;;;;;;19.67;18.45;;;2.40;99.90;;;;;;4191004;28;20037;-49
2021/12/01 07:02:27;;;;;;;18.77;17.58;;;2.40;99.90;;;;;;4192127;28;20048;-48
2021/12/01 07:04:30;;;;;;;19.25;17.92;;;2.40;99.90;;;;;;4193452;28;20040;-47
2021/12/01 07:06:33;;;;;;;22.27;20.45;;;2.30;99.90;;;;;;4191269;28;20846;-48
2021/12/01 07:08:36;;;;;;;;;;;2.30;99.90;;;;;;4191186;28;20059;-48
2021/12/01 07:10:38;;;;;;;25.17;20.30;;;2.30;99.90;;;;;;4189547;28;19966;-48
2021/12/01 07:12:41;;;;;;;15.43;13.95;;;2.30;99.90;;;;;;4193002;28;20044;-47
2021/12/01 07:14:43;;;;;;;13.95;13.05;;;2.40;99.90;;;;;;4192309;28;20040;-50
2021/12/01 07:16:46;;;;;;;13.13;12.02;;;2.40;99.90;;;;;;4191020;28;20032;-51
2021/12/01 07:18:48;;;;;;;13.32;12.27;;;2.40;99.90;;;;;;4192660;28;20047;-49
2021/12/01 07:20:50;;;;;;;13.70;12.75;;;2.50;99.90;;;;;;4192348;28;20044;-48
2021/12/01 07:22:52;;;;;;;13.75;12.40;;;2.60;99.90;;;;;;4191656;28;20088;-51
2021/12/01 07:24:55;;;;;;;15.00;13.48;;;2.60;99.90;;;;;;4189851;28;20032;-49
2021/12/01 07:26:57;;;;;;;16.33;14.70;;;2.60;99.90;;;;;;4193154;28;20052;-49
2021/12/01 07:28:59;;;;;;;14.65;13.23;;;2.60;99.90;;;;;;4195645;28;20583;-49
2021/12/01 07:31:02;;;;;;;13.80;12.77;;;2.60;99.90;;;;;;4195075;28;20044;-48
2021/12/01 07:33:04;;;;;;;14.40;13.20;;;2.60;99.90;;;;;;4195673;28;20038;-49
2021/12/01 07:35:06;;;;;;;15.00;13.70;;;2.60;99.90;;;;;;4195631;28;20048;-49
2021/12/01 07:37:15;;;;;;;13.93;12.82;;;2.50;99.90;;;;;;4193879;28;20514;-49
2021/12/01 07:39:19;;;;;;;16.02;14.70;;;2.50;99.90;;;;;;4194841;28;20044;-50
2021/12/01 07:41:21;;;;;;;17.65;15.10;;;2.60;99.90;;;;;;4193140;28;20033;-49
2021/12/01 07:43:23;;;;;;;19.63;17.73;;;2.60;99.90;;;;;;4194187;28;20502;-50
2021/12/01 07:45:27;;;;;;;13.25;11.98;;;2.60;99.90;;;;;;4193201;28;20037;-49
2021/12/01 07:47:29;;;;;;;12.18;11.48;;;2.70;99.90;;;;;;4194640;28;20052;-49
2021/12/01 07:49:31;;;;;;;14.00;12.85;;;2.70;99.90;;;;;;4194053;28;20052;-47
2021/12/01 07:51:34;;;;;;;11.00;10.40;;;2.70;99.90;;;;;;4194786;28;20041;-49
2021/12/01 07:53:37;;;;;;;8.65;8.23;;;2.80;99.90;;;;;;4192471;28;20042;-50
2021/12/01 07:55:39;;;;;;;9.98;9.55;;;2.80;99.90;;;;;;4194920;28;20466;-51
2021/12/01 07:57:42;;;;;;;10.13;9.13;;;2.90;99.90;;;;;;4194214;28;20101;-50
2021/12/01 07:59:44;;;;;;;11.35;10.60;;;2.90;99.90;;;;;;4193917;28;20419;-51
2021/12/01 08:01:46;;;;;;;14.38;12.93;;;2.90;99.90;;;;;;4192276;28;20099;-49
2021/12/01 08:03:48;;;;;;;13.95;12.45;;;2.90;99.90;;;;;;4195438;28;20075;-47
2021/12/01 08:05:51;;;;;;;11.30;10.30;;;3.00;99.90;;;;;;4192562;28;20036;-49
2021/12/01 08:07:55;;;;;;;18.08;9.90;;;3.00;99.90;;;;;;4195244;28;20033;-48
2021/12/01 08:09:57;;;;;;;11.27;9.55;;;3.00;99.90;;;;;;4194643;28;20506;-47
2021/12/01 08:11:59;;;;;;;10.02;8.70;;;3.10;99.90;;;;;;4165211;28;20140;-49
2021/12/01 08:14:02;;;;;;;10.07;8.52;;;3.10;99.90;;;;;;4192718;28;20078;-49
2021/12/01 08:16:04;;;;;;;10.48;8.75;;;3.20;99.90;;;;;;4178715;28;20053;-47
2021/12/01 08:18:07;;;;;;;9.07;8.43;;;3.20;99.90;;;;;;4190062;28;20033;-49
2021/12/01 08:20:09;;;;;;;9.45;8.07;;;3.30;99.90;;;;;;4195013;28;20033;-48
2021/12/01 08:22:12;;;;;;;10.02;6.85;;;3.30;99.90;;;;;;4190694;28;20044;-52
2021/12/01 08:24:15;;;;;;;9.73;8.85;;;3.40;99.90;;;;;;4195140;28;20048;-50
2021/12/01 08:26:17;;;;;;;23.30;8.15;;;3.40;99.90;;;;;;4174735;28;20037;-48
2021/12/01 08:28:19;;;;;;;11.85;10.63;;;3.50;99.90;;;;;;4176634;28;20076;-50
2021/12/01 08:30:21;;;;;;;13.50;12.27;;;3.40;99.90;;;;;;4192237;28;20025;-49
2021/12/01 08:32:23;;;;;;;9.13;8.23;;;3.50;99.90;;;;;;4194826;28;20072;-51
2021/12/01 08:34:26;;;;;;;12.13;10.93;;;3.40;99.90;;;;;;4192179;28;20045;-49
2021/12/01 08:36:28;;;;;;;9.45;8.75;;;3.30;99.90;;;;;;4193460;28;20033;-49
2021/12/01 08:38:30;;;;;;;9.85;9.35;;;3.30;99.90;;;;;;4193054;28;20079;-49
2021/12/01 08:40:33;;;;;;;11.23;10.20;;;3.30;99.90;;;;;;4170553;28;20083;-48
2021/12/01 08:42:36;;;;;;;9.52;8.85;;;3.30;99.90;;;;;;4192747;28;20036;-52
2021/12/01 08:44:44;;;;;;;12.38;11.40;;;3.30;99.90;;;;;;4194340;28;20094;-51
2021/12/01 08:46:46;;;;;;;10.05;9.35;;;3.30;99.90;;;;;;4192111;28;20044;-50
2021/12/01 08:48:48;;;;;;;10.75;9.75;;;3.30;99.90;;;;;;4193960;28;20054;-52
2021/12/01 08:50:51;;;;;;;11.88;10.15;;;3.30;99.90;;;;;;4192134;28;20098;-52
2021/12/01 08:52:53;;;;;;;12.88;11.93;;;3.30;99.90;;;;;;4194042;28;20086;-50
2021/12/01 08:54:55;;;;;;;14.60;13.30;;;3.40;99.90;;;;;;4194332;28;20592;-53
2021/12/01 08:56:57;;;;;;;13.07;11.75;;;3.40;99.90;;;;;;4192645;28;20037;-49
2021/12/01 08:59:00;;;;;;;11.77;11.07;;;3.40;99.90;;;;;;4192538;28;20058;-52
2021/12/01 09:01:03;;;;;;;12.57;11.52;;;3.40;99.90;;;;;;4193345;28;20094;-52
2021/12/01 09:03:06;;;;;;;10.50;9.77;;;3.30;99.90;;;;;;4194511;28;20547;-51
2021/12/01 09:05:08;;;;;;;8.88;8.13;;;3.40;99.90;;;;;;4193569;28;20040;-53
2021/12/01 09:07:11;;;;;;;9.48;8.75;;;3.40;99.90;;;;;;4192965;28;20585;-50
2021/12/01 09:09:18;;;;;;;9.38;8.70;;;3.30;99.90;;;;;;4163729;28;20041;-51
2021/12/01 09:11:20;;;;;;;9.60;9.00;;;3.40;99.90;;;;;;4193563;28;20554;-52
2021/12/01 09:13:24;;;;;;;9.10;8.35;;;3.40;99.90;;;;;;4194687;28;20083;-52
2021/12/01 09:15:27;;;;;;;8.38;7.53;;;3.40;99.90;;;;;;4191848;28;20071;-50
2021/12/01 09:17:29;;;;;;;8.93;8.43;;;3.50;99.90;;;;;;4193589;28;20048;-52
2021/12/01 09:19:31;;;;;;;9.98;9.38;;;3.60;99.90;;;;;;4191334;28;20496;-50
2021/12/01 09:21:34;;;;;;;9.77;9.15;;;3.60;99.90;;;;;;4193271;28;20052;-53
2021/12/01 09:23:36;;;;;;;12.27;10.18;;;3.60;99.90;;;;;;4192644;28;20575;-53
2021/12/01 09:25:38;;;;;;;9.23;8.82;;;3.60;99.90;;;;;;4192755;28;20063;-52
2021/12/01 09:27:49;;;;;;;12.90;11.55;;;3.60;99.90;;;;;;4191543;28;20106;-51
2021/12/01 09:29:53;;;;;;;12.63;11.38;;;3.70;99.90;;;;;;4190026;28;20672;-53
2021/12/01 09:31:56;;;;;;;11.43;10.43;;;3.70;99.90;;;;;;4194344;28;20044;-53
2021/12/01 09:33:59;;;;;;;13.20;12.00;;;3.80;99.90;;;;;;4191666;28;20039;-53
2021/12/01 09:36:02;;;;;;;11.32;10.45;;;3.90;99.90;;;;;;4193120;28;20040;-52
2021/12/01 09:38:04;;;;;;;10.90;9.95;;;3.80;99.90;;;;;;4191236;28;20443;-53
2021/12/01 09:40:13;;;;;;;13.20;11.30;;;3.80;99.90;;;;;;4192065;28;20090;-53
2021/12/01 09:42:15;;;;;;;16.65;14.95;;;3.80;99.90;;;;;;4193890;28;20068;-53
2021/12/01 09:44:18;;;;;;;13.98;12.77;;;3.80;99.90;;;;;;4192541;28;20040;-49
2021/12/01 09:46:20;;;;;;;15.30;10.48;;;3.80;99.90;;;;;;4192457;28;20036;-52
2021/12/01 09:48:23;;;;;;;;;;;3.80;99.90;;;;;;4206895;28;20058;-53
2021/12/01 09:50:44;;;;;;;12.52;11.40;;;3.70;99.90;;;;;;4175513;28;19972;-52
2021/12/01 09:52:48;;;;;;;14.68;11.65;;;3.80;99.90;;;;;;4193688;28;20099;-52
2021/12/01 09:54:50;;;;;;;23.55;17.30;;;3.80;99.90;;;;;;4193181;28;20040;-52
2021/12/01 09:56:52;;;;;;;17.35;15.80;;;4.00;99.90;;;;;;4193473;28;20050;-53
2021/12/01 09:58:55;;;;;;;15.73;14.30;;;3.90;99.90;;;;;;4192215;28;20082;-53
2021/12/01 10:01:00;;;;;;;13.32;12.35;;;3.90;99.90;;;;;;4193068;28;20033;-51
2021/12/01 10:03:03;;;;;;;13.73;12.65;;;3.90;99.90;;;;;;4192975;28;20044;-52
2021/12/01 10:05:06;;;;;;;14.07;12.77;;;3.80;99.90;;;;;;4175335;28;20091;-53
2021/12/01 10:07:12;;;;;;;13.10;12.18;;;3.70;99.90;;;;;;4190858;28;20078;-52
2021/12/01 10:09:19;;;;;;;14.80;13.45;;;3.80;99.90;;;;;;4182174;28;20110;-52
2021/12/01 10:11:27;;;;;;;14.68;12.30;;;3.90;99.90;;;;;;4191541;28;20036;-53
2021/12/01 10:13:33;;;;;;;17.33;15.45;;;4.00;99.90;;;;;;4192675;28;20040;-53
2021/12/01 10:15:35;;;;;;;14.02;12.95;;;4.00;99.90;;;;;;4193178;28;20377;-52
2021/12/01 10:17:37;;;;;;;15.18;13.65;;;4.10;99.90;;;;;;4174924;28;20037;-51
2021/12/01 10:19:39;;;;;;;13.27;12.13;;;4.20;99.90;;;;;;4190712;28;20041;-52
2021/12/01 10:21:47;;;;;;;18.45;16.95;;;4.20;99.90;;;;;;4192569;28;20048;-53
2021/12/01 10:23:52;;;;;;;23.48;20.10;;;4.30;99.90;;;;;;4192917;28;20094;-51
2021/12/01 10:25:56;;;;;;;27.75;21.40;;;4.30;99.90;;;;;;4192415;28;20782;-53
2021/12/01 10:27:58;;;;;;;31.98;20.08;;;4.30;99.90;;;;;;4190848;28;20048;-51
2021/12/01 10:30:00;;;;;;;17.58;16.17;;;4.30;99.90;;;;;;4169591;28;20049;-53
2021/12/01 10:32:07;;;;;;;15.13;13.75;;;4.30;99.90;;;;;;4189271;28;20033;-51
2021/12/01 10:34:26;;;;;;;12.90;11.60;;;4.20;99.90;;;;;;4187090;28;20764;-53
2021/12/01 10:36:28;;;;;;;11.05;10.25;;;4.20;99.90;;;;;;4190341;28;20036;-53
2021/12/01 10:38:33;;;;;;;12.90;11.90;;;4.20;99.90;;;;;;4190231;28;20036;-51
2021/12/01 10:40:36;;;;;;;13.00;11.68;;;4.20;99.90;;;;;;4192394;28;20443;-51
2021/12/01 10:42:58;;;;;;;11.18;10.40;;;4.20;99.90;;;;;;4189372;28;20090;-52
2021/12/01 10:45:04;;;;;;;13.38;12.48;;;4.30;99.90;;;;;;4189014;28;20032;-52
2021/12/01 10:47:11;;;;;;;20.50;17.23;;;4.30;99.90;;;;;;4188858;28;20040;-53
2021/12/01 10:49:13;;;;;;;16.38;14.75;;;4.30;99.90;;;;;;4193491;28;20044;-52
2021/12/01 10:51:32;;;;;;;;;;;4.30;99.90;;;;;;4190122;28;20035;-53